createdAt,value
2022-08-27T00:02:02.706Z,99.90
2022-08-27T00:04:32.399Z,99.90
2022-08-27T00:07:00.551Z,99.90
2022-08-27T00:09:29.868Z,99.90
2022-08-27T00:11:58.438Z,99.90
2022-08-27T00:14:28.281Z,99.90
2022-08-27T00:16:57.211Z,99.90
2022-08-27T00:19:25.429Z,99.90
2022-08-27T00:21:55.680Z,99.90
2022-08-27T00:24:23.906Z,99.90
2022-08-27T00:26:53.375Z,99.90
2022-08-27T00:29:21.975Z,99.90
2022-08-27T00:31:53.416Z,99.90
2022-08-27T00:34:23.227Z,99.90
2022-08-27T00:36:51.256Z,99.90
2022-08-27T00:39:21.293Z,99.90
2022-08-27T00:41:49.403Z,99.90
2022-08-27T00:44:17.778Z,99.90
2022-08-27T00:46:48.915Z,99.90
2022-08-27T00:49:20.845Z,99.90
2022-08-27T00:51:54.702Z,99.90
2022-08-27T00:54:24.501Z,99.90
2022-08-27T00:56:54.404Z,99.90
2022-08-27T00:59:25.595Z,99.90
2022-08-27T01:02:11.153Z,99.90
2022-08-27T01:04:41.510Z,99.90
2022-08-27T01:07:11.001Z,99.90
2022-08-27T01:09:40.738Z,99.90
2022-08-27T01:12:09.790Z,99.90
2022-08-27T01:14:38.294Z,99.90
2022-08-27T01:17:09.197Z,99.90
2022-08-27T01:19:42.337Z,99.90
2022-08-27T01:22:19.921Z,99.90
2022-08-27T01:24:55.910Z,99.90
2022-08-27T01:27:27.895Z,99.90
2022-08-27T01:29:56.358Z,99.90
2022-08-27T01:32:28.073Z,99.90
2022-08-27T01:34:56.899Z,99.90
2022-08-27T01:37:27.051Z,99.90
2022-08-27T01:39:59.119Z,99.90
2022-08-27T01:42:31.910Z,99.90
2022-08-27T01:45:05.662Z,99.90
2022-08-27T01:47:34.782Z,99.90
2022-08-27T01:50:03.870Z,99.90
2022-08-27T01:52:32.640Z,99.90
2022-08-27T01:55:01.983Z,99.90
2022-08-27T01:57:30.109Z,99.90
2022-08-27T02:00:02.368Z,99.90
2022-08-27T02:02:40.706Z,99.90
2022-08-27T02:05:09.810Z,99.90
2022-08-27T02:07:37.919Z,99.90
2022-08-27T02:10:10.182Z,99.90
2022-08-27T02:12:38.374Z,99.90
2022-08-27T02:15:07.810Z,99.90
2022-08-27T02:17:35.994Z,99.90
2022-08-27T02:20:04.853Z,99.90
2022-08-27T02:22:32.934Z,99.90
2022-08-27T02:25:01.017Z,99.90
2022-08-27T02:27:30.477Z,99.90
2022-08-27T02:29:58.465Z,99.90
2022-08-27T02:32:32.432Z,99.90
2022-08-27T02:35:00.979Z,99.90
2022-08-27T02:37:29.879Z,99.90
2022-08-27T02:39:58.396Z,99.90
2022-08-27T02:42:26.582Z,99.90
2022-08-27T02:44:55.975Z,99.90
2022-08-27T02:47:24.018Z,99.90
2022-08-27T02:49:52.307Z,99.90
2022-08-27T02:52:24.784Z,99.90
2022-08-27T02:54:53.445Z,99.90
2022-08-27T02:57:22.427Z,99.90
2022-08-27T02:59:50.507Z,99.90
2022-08-27T03:02:20.545Z,99.90
2022-08-27T03:04:49.511Z,99.90
2022-08-27T03:07:19.690Z,99.90
2022-08-27T03:09:47.725Z,99.90
2022-08-27T03:12:15.939Z,99.90
2022-08-27T03:14:44.601Z,99.90
2022-08-27T03:17:30.778Z,99.90
2022-08-27T03:20:01.518Z,99.90
2022-08-27T03:22:29.610Z,99.90
2022-08-27T03:24:57.658Z,99.90
2022-08-27T03:27:25.750Z,99.90
2022-08-27T03:29:54.138Z,99.90
2022-08-27T03:32:22.198Z,99.90
2022-08-27T03:34:50.218Z,99.90
2022-08-27T03:37:19.589Z,99.90
2022-08-27T03:39:47.614Z,99.90
2022-08-27T03:42:15.682Z,99.90
2022-08-27T03:44:43.770Z,99.90
2022-08-27T03:47:11.806Z,99.90
2022-08-27T03:49:39.992Z,99.90
2022-08-27T03:52:09.484Z,99.90
2022-08-27T03:54:39.815Z,99.90
2022-08-27T03:57:08.498Z,99.90
2022-08-27T03:59:36.527Z,99.90
2022-08-27T04:02:05.059Z,99.90
2022-08-27T04:04:33.656Z,99.90
2022-08-27T04:07:01.746Z,99.90
2022-08-27T04:09:29.801Z,99.90
2022-08-27T04:11:59.219Z,99.90
2022-08-27T04:14:27.729Z,99.90
2022-08-27T04:16:56.876Z,99.90
2022-08-27T04:19:28.382Z,99.90
2022-08-27T04:22:01.589Z,99.90
2022-08-27T04:24:31.579Z,99.90
2022-08-27T04:27:01.922Z,99.90
2022-08-27T04:29:30.258Z,99.90
2022-08-27T04:31:59.038Z,99.90
2022-08-27T04:34:27.160Z,99.90
2022-08-27T04:36:57.141Z,99.90
2022-08-27T04:39:26.873Z,99.90
2022-08-27T04:41:56.965Z,99.90
2022-08-27T04:44:31.092Z,99.90
2022-08-27T04:47:00.713Z,99.90
2022-08-27T04:49:29.490Z,99.90
2022-08-27T04:51:59.272Z,99.90
2022-08-27T04:54:32.779Z,99.90
2022-08-27T04:57:01.634Z,99.90
2022-08-27T04:59:31.320Z,99.90
2022-08-27T05:01:59.777Z,99.90
2022-08-27T05:04:29.038Z,99.90
2022-08-27T05:06:57.309Z,99.90
2022-08-27T05:09:26.947Z,99.90
2022-08-27T05:11:56.183Z,99.90
2022-08-27T05:14:29.827Z,99.90
2022-08-27T05:16:59.918Z,99.90
2022-08-27T05:19:28.502Z,99.90
2022-08-27T05:21:56.949Z,99.90
2022-08-27T05:24:25.045Z,99.90
2022-08-27T05:26:53.234Z,99.90
2022-08-27T05:29:22.143Z,99.90
2022-08-27T05:31:50.515Z,99.90
2022-08-27T05:34:22.002Z,99.90
2022-08-27T05:36:53.474Z,99.90
2022-08-27T05:39:21.555Z,99.90
2022-08-27T05:41:49.722Z,99.90
2022-08-27T05:44:39.997Z,99.90
2022-08-27T05:47:06.398Z,99.90
2022-08-27T05:49:35.808Z,99.90
2022-08-27T05:52:04.821Z,99.90
2022-08-27T05:54:32.881Z,99.90
2022-08-27T05:57:00.909Z,99.90
2022-08-27T05:59:46.354Z,99.90
2022-08-27T06:02:14.464Z,99.90
2022-08-27T06:04:43.927Z,99.90
2022-08-27T06:07:11.995Z,99.90
2022-08-27T06:09:40.986Z,99.90
2022-08-27T06:12:09.833Z,99.90
2022-08-27T06:14:38.428Z,99.90
2022-08-27T06:17:07.250Z,99.90
2022-08-27T06:19:36.363Z,99.90
2022-08-27T06:22:10.049Z,99.90
2022-08-27T06:24:40.324Z,1.00
2022-08-27T06:27:11.416Z,10.30
2022-08-27T06:29:39.698Z,6.20
2022-08-27T06:32:09.086Z,7.00
2022-08-27T06:34:38.017Z,1.00
2022-08-27T06:37:08.115Z,1.00
2022-08-27T06:39:37.462Z,1.00
2022-08-27T06:42:06.242Z,1.00
2022-08-27T06:44:34.726Z,1.00
2022-08-27T06:47:04.335Z,1.00
2022-08-27T06:49:33.651Z,1.00
2022-08-27T06:52:02.114Z,1.00
2022-08-27T06:54:32.183Z,1.00
2022-08-27T06:57:00.805Z,1.00
2022-08-27T06:59:29.065Z,1.00
2022-08-27T07:01:57.338Z,1.00
2022-08-27T07:04:32.782Z,1.00
2022-08-27T07:07:02.750Z,1.00
2022-08-27T07:09:32.893Z,1.00
2022-08-27T07:12:01.327Z,1.00
2022-08-27T07:14:32.931Z,1.00
2022-08-27T07:17:05.783Z,1.00
2022-08-27T07:19:40.713Z,1.00
2022-08-27T07:22:10.772Z,1.00
2022-08-27T07:24:40.241Z,1.00
2022-08-27T07:27:08.807Z,1.00
2022-08-27T07:29:37.142Z,99.90
2022-08-27T07:32:05.439Z,99.90
2022-08-27T07:34:33.537Z,99.90
2022-08-27T07:37:01.632Z,99.90
2022-08-27T07:39:29.719Z,94.30
2022-08-27T07:42:16.198Z,23.40
2022-08-27T07:44:44.379Z,87.70
2022-08-27T07:47:13.554Z,14.10
2022-08-27T07:49:41.760Z,94.70
2022-08-27T07:52:09.806Z,1.00
2022-08-27T07:54:37.975Z,1.00
2022-08-27T07:57:07.483Z,1.00
2022-08-27T07:59:36.579Z,1.00
2022-08-27T08:02:04.997Z,1.00
2022-08-27T08:04:33.059Z,90.20
2022-08-27T08:07:01.371Z,78.40
2022-08-27T08:09:30.611Z,75.00
2022-08-27T08:11:59.132Z,68.10
2022-08-27T08:14:28.908Z,66.70
2022-08-27T08:17:01.241Z,63.20
2022-08-27T08:19:29.687Z,66.10
2022-08-27T08:22:05.004Z,70.00
2022-08-27T08:24:34.461Z,67.80
2022-08-27T08:27:06.838Z,69.60
2022-08-27T08:29:37.510Z,67.80
2022-08-27T08:32:06.297Z,64.00
2022-08-27T08:34:35.593Z,61.70
2022-08-27T08:37:04.961Z,54.60
2022-08-27T08:39:33.071Z,56.50
2022-08-27T08:42:04.071Z,58.90
2022-08-27T08:44:35.556Z,56.80
2022-08-27T08:47:10.388Z,55.50
2022-08-27T08:49:45.410Z,55.50
2022-08-27T08:52:31.255Z,58.10
2022-08-27T08:55:10.139Z,54.40
2022-08-27T08:57:43.295Z,55.80
2022-08-27T09:00:14.197Z,56.70
2022-08-27T09:02:52.241Z,53.10
2022-08-27T09:05:20.665Z,52.50
2022-08-27T09:08:28.586Z,55.70
2022-08-27T09:10:58.222Z,54.40
2022-08-27T09:13:30.591Z,57.30
2022-08-27T09:16:04.397Z,61.50
2022-08-27T09:18:37.008Z,58.40
2022-08-27T09:21:14.301Z,59.60
2022-08-27T09:24:02.104Z,62.20
2022-08-27T09:26:32.238Z,63.90
2022-08-27T09:29:19.772Z,65.80
2022-08-27T09:31:55.476Z,70.10
2022-08-27T09:34:27.132Z,73.20
2022-08-27T09:37:05.506Z,70.50
2022-08-27T09:39:36.989Z,67.10
2022-08-27T09:42:05.989Z,66.40
2022-08-27T09:44:34.478Z,69.40
2022-08-27T09:47:04.682Z,66.20
2022-08-27T09:49:36.766Z,65.70
2022-08-27T09:52:05.103Z,70.10
2022-08-27T09:54:41.843Z,75.10
2022-08-27T09:57:11.705Z,74.80
2022-08-27T09:59:44.268Z,77.60
2022-08-27T10:02:17.544Z,76.00
2022-08-27T10:04:50.627Z,67.90
2022-08-27T10:07:32.323Z,67.80
2022-08-27T10:10:05.098Z,66.90
2022-08-27T10:12:40.134Z,67.30
2022-08-27T10:15:10.277Z,69.40
2022-08-27T10:17:48.140Z,72.10
2022-08-27T10:20:30.531Z,75.90
2022-08-27T10:23:11.472Z,77.30
2022-08-27T10:25:47.662Z,71.00
2022-08-27T10:28:26.650Z,68.00
2022-08-27T10:31:09.171Z,72.70
2022-08-27T10:33:45.670Z,67.70
2022-08-27T10:36:26.966Z,69.70
2022-08-27T10:39:03.794Z,69.30
2022-08-27T10:41:36.281Z,66.50
2022-08-27T10:44:31.616Z,65.70
2022-08-27T10:47:24.948Z,67.50
2022-08-27T10:50:01.537Z,70.60
2022-08-27T10:52:38.773Z,68.90
2022-08-27T10:55:13.522Z,69.30
2022-08-27T10:58:01.054Z,68.40
2022-08-27T11:00:35.547Z,68.50
2022-08-27T11:03:08.379Z,70.00
2022-08-27T11:05:44.659Z,62.60
2022-08-27T11:08:20.254Z,57.30
2022-08-27T11:10:51.222Z,58.40
2022-08-27T11:13:27.262Z,54.20
2022-08-27T11:15:57.534Z,52.50
2022-08-27T11:18:41.314Z,50.90
2022-08-27T11:21:17.573Z,47.10
2022-08-27T11:23:50.841Z,52.50
2022-08-27T11:26:18.922Z,47.30
2022-08-27T11:28:50.075Z,47.30
2022-08-27T11:31:22.547Z,46.70
2022-08-27T11:33:58.779Z,45.10
2022-08-27T11:36:47.672Z,45.80
2022-08-27T11:39:40.936Z,46.80
2022-08-27T11:42:14.875Z,45.20
2022-08-27T11:44:46.594Z,43.90
2022-08-27T11:47:20.502Z,44.20
2022-08-27T11:49:51.976Z,45.30
2022-08-27T11:52:29.163Z,41.30
2022-08-27T11:55:14.525Z,40.80
2022-08-27T11:57:43.255Z,40.40
2022-08-27T12:00:20.998Z,38.80
2022-08-27T12:02:59.589Z,39.60
2022-08-27T12:05:37.453Z,34.10
2022-08-27T12:08:21.144Z,33.60
2022-08-27T12:11:05.552Z,34.10
2022-08-27T12:13:39.429Z,32.60
2022-08-27T12:16:17.359Z,31.40
2022-08-27T12:18:56.298Z,31.00
2022-08-27T12:21:36.297Z,30.70
2022-08-27T12:24:30.687Z,29.80
2022-08-27T12:27:02.740Z,27.50
2022-08-27T12:29:42.298Z,28.70
2022-08-27T12:32:26.078Z,27.10
2022-08-27T12:34:59.998Z,23.00
2022-08-27T12:37:30.657Z,22.20
2022-08-27T12:40:01.833Z,19.40
2022-08-27T12:42:31.351Z,18.10
2022-08-27T12:45:00.679Z,16.70
2022-08-27T12:47:29.642Z,16.80
2022-08-27T12:50:00.423Z,14.90
2022-08-27T12:52:52.458Z,14.90
2022-08-27T12:55:33.342Z,15.90
2022-08-27T12:58:15.441Z,14.90
2022-08-27T13:01:05.692Z,14.80
2022-08-27T13:03:36.525Z,14.40
2022-08-27T13:06:16.745Z,12.10
2022-08-27T13:08:45.115Z,11.90
2022-08-27T13:11:21.661Z,13.50
2022-08-27T13:13:52.122Z,10.80
2022-08-27T13:16:21.853Z,13.30
2022-08-27T13:18:51.243Z,12.30
2022-08-27T13:21:23.885Z,11.40
2022-08-27T13:23:57.443Z,8.50
2022-08-27T13:26:29.367Z,9.10
2022-08-27T13:29:03.316Z,8.00
2022-08-27T13:31:34.228Z,8.10
2022-08-27T13:34:06.513Z,8.80
2022-08-27T13:36:50.538Z,8.70
2022-08-27T13:39:19.159Z,9.50
2022-08-27T13:41:49.830Z,9.30
2022-08-27T13:44:24.587Z,7.50
2022-08-27T13:46:58.989Z,8.50
2022-08-27T13:49:29.592Z,7.70
2022-08-27T13:52:03.973Z,7.10
2022-08-27T13:54:33.357Z,8.00
2022-08-27T13:57:08.356Z,5.70
2022-08-27T13:59:43.318Z,5.60
2022-08-27T14:02:25.301Z,4.20
2022-08-27T14:05:07.583Z,3.90
2022-08-27T14:07:38.603Z,3.80
2022-08-27T14:10:09.418Z,3.30
2022-08-27T14:12:41.513Z,3.60
2022-08-27T14:15:21.050Z,2.80
2022-08-27T14:17:49.871Z,3.60
2022-08-27T14:20:20.359Z,4.10
2022-08-27T14:22:48.458Z,2.70
2022-08-27T14:25:17.730Z,2.90
2022-08-27T14:27:53.918Z,3.20
2022-08-27T14:30:29.344Z,2.80
2022-08-27T14:33:00.133Z,3.10
2022-08-27T14:35:29.309Z,1.60
2022-08-27T14:37:58.046Z,3.20
2022-08-27T14:40:26.138Z,2.30
2022-08-27T14:42:54.510Z,2.20
2022-08-27T14:45:24.427Z,1.20
2022-08-27T14:47:52.859Z,2.30
2022-08-27T14:50:30.345Z,2.40
2022-08-27T14:52:58.456Z,1.60
2022-08-27T14:55:26.567Z,2.40
2022-08-27T14:57:54.669Z,1.30
2022-08-27T15:00:24.425Z,1.00
2022-08-27T15:02:53.885Z,1.80
2022-08-27T15:05:23.462Z,2.10
2022-08-27T15:07:56.153Z,1.00
2022-08-27T15:10:26.204Z,1.20
2022-08-27T15:12:54.814Z,1.20
2022-08-27T15:15:24.255Z,1.20
2022-08-27T15:17:52.371Z,1.00
2022-08-27T15:20:20.664Z,1.10
2022-08-27T15:22:51.807Z,1.70
2022-08-27T15:25:21.395Z,1.90
2022-08-27T15:27:49.545Z,1.30
2022-08-27T15:30:18.962Z,2.60
2022-08-27T15:32:49.701Z,1.40
2022-08-27T15:35:20.430Z,1.00
2022-08-27T15:37:48.569Z,1.00
2022-08-27T15:40:18.612Z,1.00
2022-08-27T15:42:47.773Z,2.60
2022-08-27T15:45:16.131Z,1.80
2022-08-27T15:47:44.248Z,2.20
2022-08-27T15:50:14.232Z,1.60
2022-08-27T15:52:43.310Z,1.00
2022-08-27T15:55:21.142Z,1.00
2022-08-27T15:57:49.391Z,1.00
2022-08-27T16:00:19.063Z,1.00
2022-08-27T16:02:47.636Z,1.00
2022-08-27T16:05:18.014Z,1.00
2022-08-27T16:07:46.844Z,1.00
2022-08-27T16:10:15.958Z,1.00
2022-08-27T16:12:44.453Z,1.00
2022-08-27T16:15:13.568Z,1.00
2022-08-27T16:17:43.084Z,1.00
2022-08-27T16:20:13.126Z,1.00
2022-08-27T16:22:43.582Z,1.00
2022-08-27T16:25:16.541Z,1.00
2022-08-27T16:27:46.490Z,1.00
2022-08-27T16:30:15.293Z,1.00
2022-08-27T16:32:45.359Z,1.00
2022-08-27T16:35:15.403Z,1.00
2022-08-27T16:37:45.549Z,1.00
2022-08-27T16:40:14.905Z,1.00
2022-08-27T16:42:47.890Z,1.00
2022-08-27T16:45:17.617Z,1.00
2022-08-27T16:48:03.707Z,1.00
2022-08-27T16:50:34.472Z,1.00
2022-08-27T16:53:07.183Z,1.00
2022-08-27T16:55:37.523Z,1.00
2022-08-27T16:58:07.042Z,1.00
2022-08-27T17:00:37.711Z,1.00
2022-08-27T17:03:06.258Z,1.00
2022-08-27T17:05:35.111Z,1.00
2022-08-27T17:08:05.696Z,1.00
2022-08-27T17:10:42.030Z,1.00
2022-08-27T17:13:10.699Z,1.00
2022-08-27T17:15:39.595Z,1.00
2022-08-27T17:18:07.977Z,1.00
2022-08-27T17:20:37.363Z,1.00
2022-08-27T17:23:07.236Z,1.00
2022-08-27T17:25:35.293Z,1.60
2022-08-27T17:28:03.670Z,2.40
2022-08-27T17:30:31.906Z,2.50
2022-08-27T17:33:00.084Z,3.50
2022-08-27T17:35:28.391Z,3.90
2022-08-27T17:37:56.449Z,4.60
2022-08-27T17:40:26.256Z,4.70
2022-08-27T17:42:55.238Z,4.60
2022-08-27T17:45:23.276Z,6.20
2022-08-27T17:47:51.571Z,6.20
2022-08-27T17:50:19.746Z,7.30
2022-08-27T17:52:47.822Z,7.90
2022-08-27T17:55:15.962Z,9.80
2022-08-27T17:57:46.281Z,11.10
2022-08-27T18:00:15.338Z,11.80
2022-08-27T18:02:45.158Z,12.50
2022-08-27T18:05:14.816Z,14.60
2022-08-27T18:07:43.996Z,15.20
2022-08-27T18:10:15.530Z,16.20
2022-08-27T18:12:45.975Z,16.60
2022-08-27T18:15:19.574Z,18.20
2022-08-27T18:17:49.054Z,19.30
2022-08-27T18:20:22.377Z,20.10
2022-08-27T18:22:51.174Z,20.90
2022-08-27T18:25:22.818Z,23.70
2022-08-27T18:27:55.707Z,25.10
2022-08-27T18:30:24.866Z,26.30
2022-08-27T18:32:53.191Z,26.60
2022-08-27T18:35:24.322Z,27.40
2022-08-27T18:37:52.546Z,29.10
2022-08-27T18:40:23.345Z,30.70
2022-08-27T18:42:53.226Z,32.40
2022-08-27T18:45:28.463Z,34.30
2022-08-27T18:47:59.989Z,36.40
2022-08-27T18:50:28.621Z,39.00
2022-08-27T18:52:57.942Z,39.30
2022-08-27T18:55:28.488Z,41.70
2022-08-27T18:57:57.907Z,47.20
2022-08-27T19:00:25.954Z,49.70
2022-08-27T19:02:54.295Z,50.50
2022-08-27T19:05:26.832Z,55.10
2022-08-27T19:07:55.327Z,56.90
2022-08-27T19:10:23.909Z,57.70
2022-08-27T19:12:52.017Z,58.50
2022-08-27T19:15:21.914Z,59.10
2022-08-27T19:17:54.145Z,64.10
2022-08-27T19:20:22.399Z,62.40
2022-08-27T19:22:50.757Z,65.70
2022-08-27T19:25:19.446Z,68.00
2022-08-27T19:27:48.397Z,69.10
2022-08-27T19:30:17.678Z,71.50
2022-08-27T19:32:47.138Z,75.10
2022-08-27T19:35:15.419Z,79.80
2022-08-27T19:37:46.393Z,82.10
2022-08-27T19:40:22.671Z,83.60
2022-08-27T19:42:51.406Z,84.90
2022-08-27T19:45:23.704Z,87.00
2022-08-27T19:47:54.457Z,87.70
2022-08-27T19:50:23.797Z,90.40
2022-08-27T19:52:53.335Z,93.30
2022-08-27T19:55:21.539Z,95.20
2022-08-27T19:57:49.597Z,97.00
2022-08-27T20:00:21.221Z,99.90
2022-08-27T20:02:50.866Z,99.90
2022-08-27T20:05:22.677Z,99.90
2022-08-27T20:07:52.651Z,99.90
2022-08-27T20:10:22.845Z,99.90
2022-08-27T20:12:54.163Z,99.90
2022-08-27T20:15:23.553Z,99.90
2022-08-27T20:17:53.967Z,99.90
2022-08-27T20:20:25.428Z,99.90
2022-08-27T20:22:55.103Z,99.90
2022-08-27T20:25:23.773Z,99.90
2022-08-27T20:27:52.983Z,99.90
2022-08-27T20:30:24.007Z,99.90
2022-08-27T20:32:52.134Z,99.90
2022-08-27T20:35:20.831Z,99.90
2022-08-27T20:37:51.084Z,99.90
2022-08-27T20:40:24.421Z,99.90
2022-08-27T20:42:52.824Z,99.90
2022-08-27T20:45:21.503Z,99.90
2022-08-27T20:47:50.738Z,99.90
2022-08-27T20:50:20.533Z,99.90
2022-08-27T20:52:50.321Z,99.90
2022-08-27T20:55:18.945Z,99.90
2022-08-27T20:58:07.145Z,99.90
2022-08-27T21:00:37.139Z,99.90
2022-08-27T21:03:05.295Z,99.90
2022-08-27T21:05:35.446Z,99.90
2022-08-27T21:08:06.814Z,99.90
2022-08-27T21:10:35.982Z,99.90
2022-08-27T21:13:06.152Z,99.90
2022-08-27T21:15:36.190Z,99.90
2022-08-27T21:18:04.318Z,99.90
2022-08-27T21:20:33.113Z,99.90
2022-08-27T21:23:01.852Z,99.90
2022-08-27T21:25:31.457Z,99.90
2022-08-27T21:28:00.320Z,99.90
2022-08-27T21:30:28.675Z,99.90
2022-08-27T21:32:57.114Z,99.90
2022-08-27T21:35:26.629Z,99.90
2022-08-27T21:37:55.245Z,99.90
2022-08-27T21:40:25.056Z,99.90
2022-08-27T21:42:55.377Z,99.90
2022-08-27T21:45:23.619Z,99.90
2022-08-27T21:47:52.421Z,99.90
2022-08-27T21:50:20.993Z,99.90
2022-08-27T21:52:49.445Z,99.90
2022-08-27T21:55:18.138Z,99.90
2022-08-27T21:57:46.215Z,99.90
2022-08-27T22:00:38.152Z,99.90
2022-08-27T22:03:10.139Z,99.90
2022-08-27T22:05:39.849Z,99.90
2022-08-27T22:08:09.498Z,99.90
2022-08-27T22:10:37.949Z,99.90
2022-08-27T22:13:06.871Z,99.90
2022-08-27T22:15:36.406Z,99.90
2022-08-27T22:18:05.145Z,99.90
2022-08-27T22:20:34.126Z,99.90
2022-08-27T22:23:02.341Z,99.90
2022-08-27T22:25:30.569Z,99.90
2022-08-27T22:27:58.612Z,99.90
2022-08-27T22:30:26.744Z,99.90
2022-08-27T22:32:56.372Z,99.90
2022-08-27T22:35:24.705Z,99.90
2022-08-27T22:37:56.085Z,99.90
2022-08-27T22:40:25.971Z,99.90
2022-08-27T22:42:55.834Z,99.90
2022-08-27T22:45:24.992Z,99.90
2022-08-27T22:47:53.139Z,99.90
2022-08-27T22:50:23.259Z,99.90
2022-08-27T22:52:51.432Z,99.90
2022-08-27T22:55:22.162Z,99.90
2022-08-27T22:57:52.217Z,99.90
2022-08-27T23:00:24.619Z,99.90
2022-08-27T23:02:53.094Z,99.90
2022-08-27T23:05:23.433Z,99.90
2022-08-27T23:07:51.655Z,99.90
2022-08-27T23:10:22.789Z,99.90
2022-08-27T23:12:53.448Z,99.90
2022-08-27T23:15:24.661Z,99.90
2022-08-27T23:17:53.218Z,99.90
2022-08-27T23:20:23.662Z,99.90
2022-08-27T23:22:53.050Z,99.90
2022-08-27T23:25:41.304Z,99.90
2022-08-27T23:28:14.666Z,99.90
2022-08-27T23:30:44.467Z,99.90
2022-08-27T23:33:12.867Z,99.90
2022-08-27T23:35:47.545Z,99.90
2022-08-27T23:38:16.383Z,99.90
2022-08-27T23:40:45.344Z,99.90
2022-08-27T23:43:13.907Z,99.90
2022-08-27T23:45:43.464Z,99.90
2022-08-27T23:48:11.987Z,99.90
2022-08-27T23:50:40.724Z,99.90
2022-08-27T23:53:10.364Z,99.90
2022-08-27T23:55:40.305Z,99.90
2022-08-27T23:58:08.799Z,99.90
